Time;durP1;ratioP1;P1;durP2;ratioP2;P2;SDS_P1;SDS_P2;PMS_P1;PMS_P2;Temp;Humidity;BMP_temperature;BMP_pressure;BME280_temperature;BME280_humidity;BME280_pressure;Samples;Min_cycle;Max_cycle;Signal;HPM_P1;HPM_P2
2023/10/25 00:02:01;;;;;;;7.20;2.80;;;12.10;99.90;;;;;;4826357;29;20040;-95
2023/10/25 00:04:30;;;;;;;5.03;2.50;;;12.10;99.90;;;;;;4826131;29;20057;-92
2023/10/25 00:06:58;;;;;;;3.30;2.10;;;12.10;99.90;;;;;;4826398;29;20085;-92
2023/10/25 00:09:35;;;;;;;4.65;2.90;;;12.10;99.90;;;;;;4810920;29;20034;-94
2023/10/25 00:12:01;;;;;;;3.95;2.47;;;12.00;99.90;;;;;;4800311;29;20086;-94
2023/10/25 00:14:35;;;;;;;5.88;2.75;;;12.00;99.90;;;;;;4827490;29;20090;-93
2023/10/25 00:17:03;;;;;;;3.72;2.25;;;12.00;99.90;;;;;;4811204;29;20038;-95
2023/10/25 00:19:29;;;;;;;7.07;2.65;;;12.00;99.90;;;;;;4825746;29;20029;-94
2023/10/25 00:22:01;;;;;;;4.63;2.65;;;12.00;99.90;;;;;;4826355;29;20023;-94
2023/10/25 00:24:33;;;;;;;4.28;2.42;;;11.90;99.90;;;;;;4823179;29;20095;-93
2023/10/25 00:27:10;;;;;;;7.70;2.47;;;11.90;99.90;;;;;;4821463;29;20113;-94
2023/10/25 00:29:38;;;;;;;3.53;2.33;;;11.90;99.90;;;;;;4815962;29;20042;-96
2023/10/25 00:32:14;;;;;;;4.45;2.22;;;11.90;99.90;;;;;;4821403;29;20491;-91
2023/10/25 00:34:50;;;;;;;6.63;2.25;;;11.90;99.90;;;;;;4824861;29;20547;-95
2023/10/25 00:37:23;;;;;;;3.20;2.10;;;11.90;99.90;;;;;;4810676;29;20073;-92
2023/10/25 00:39:49;;;;;;;3.58;2.05;;;11.80;99.90;;;;;;4833713;29;20030;-92
2023/10/25 00:42:24;;;;;;;4.30;2.22;;;11.80;99.90;;;;;;4845958;29;20026;-95
2023/10/25 00:45:07;;;;;;;3.08;2.10;;;11.80;99.90;;;;;;4831534;29;20039;-93
2023/10/25 00:47:35;;;;;;;3.67;2.03;;;11.80;99.90;;;;;;4847633;29;20050;-94
2023/10/25 00:50:05;;;;;;;4.38;2.45;;;11.80;99.90;;;;;;4830487;29;20037;-95
2023/10/25 00:52:38;;;;;;;3.95;2.28;;;11.80;99.90;;;;;;4825196;29;20074;-93
2023/10/25 00:55:09;;;;;;;4.05;2.08;;;11.80;99.90;;;;;;4819151;29;20045;-93
2023/10/25 00:57:43;;;;;;;4.40;2.22;;;11.80;99.90;;;;;;4825087;29;20070;-94
2023/10/25 01:00:25;;;;;;;4.45;2.20;;;11.80;99.90;;;;;;4821861;29;20035;-94
2023/10/25 01:02:51;;;;;;;3.47;1.85;;;11.80;99.90;;;;;;4810719;29;20071;-93
2023/10/25 01:05:30;;;;;;;;;;;;;;;;;;;;;
2023/10/25 01:08:02;;;;;;;5.28;2.20;;;11.80;99.90;;;;;;4818665;29;20048;-94
2023/10/25 01:10:30;;;;;;;4.32;2.50;;;11.80;99.90;;;;;;4828188;29;20046;-94
2023/10/25 01:12:59;;;;;;;4.35;2.35;;;11.80;99.90;;;;;;4832497;29;20039;-94
2023/10/25 01:15:25;;;;;;;4.78;2.20;;;11.70;99.90;;;;;;4818056;29;20129;-93
2023/10/25 01:18:01;;;;;;;3.58;2.22;;;11.70;99.90;;;;;;4817140;29;20144;-93
2023/10/25 01:20:32;;;;;;;7.45;2.45;;;11.70;99.90;;;;;;4813183;29;20038;-94
2023/10/25 01:22:59;;;;;;;6.00;2.10;;;11.70;99.90;;;;;;4837941;29;20040;-92
2023/10/25 01:25:27;;;;;;;5.32;2.42;;;11.80;99.90;;;;;;4817726;29;20046;-91
2023/10/25 01:28:02;;;;;;;3.42;2.17;;;11.70;99.90;;;;;;4816598;29;20126;-93
2023/10/25 01:30:46;;;;;;;;;;;;;;;;;;;;;
2023/10/25 01:33:12;;;;;;;4.18;2.20;;;11.70;99.90;;;;;;4831548;29;20098;-94
2023/10/25 01:35:56;;;;;;;;;;;;;;;;;;;;;
2023/10/25 01:38:22;;;;;;;5.85;2.17;;;11.70;99.90;;;;;;4840096;29;20066;-93
2023/10/25 01:40:57;;;;;;;5.85;2.47;;;11.70;99.90;;;;;;4834949;29;20403;-94
2023/10/25 01:43:25;;;;;;;5.05;2.45;;;11.70;99.90;;;;;;4822934;29;20034;-93
2023/10/25 01:46:03;;;;;;;;;;;;;;;;;;;;;
2023/10/25 01:48:35;;;;;;;5.00;2.25;;;11.70;99.90;;;;;;4829061;29;20046;-93
2023/10/25 01:51:06;;;;;;;4.50;2.10;;;11.70;99.90;;;;;;4811778;29;20129;-93
2023/10/25 01:53:42;;;;;;;4.10;2.20;;;11.60;99.90;;;;;;4816171;29;20552;-92
2023/10/25 01:56:10;;;;;;;3.90;2.20;;;11.60;99.90;;;;;;4828436;29;20498;-93
2023/10/25 01:58:44;;;;;;;5.05;2.70;;;11.60;99.90;;;;;;4811031;29;20054;-92
2023/10/25 02:01:13;;;;;;;4.50;2.00;;;11.60;99.90;;;;;;4820558;29;20035;-93
2023/10/25 02:03:40;;;;;;;6.15;2.13;;;11.60;99.90;;;;;;4819975;29;20037;-94
2023/10/25 02:06:21;;;;;;;5.30;1.98;;;11.60;99.90;;;;;;4830484;29;20031;-92
2023/10/25 02:08:52;;;;;;;4.32;2.00;;;11.50;99.90;;;;;;4840116;29;20045;-91
2023/10/25 02:11:23;;;;;;;4.30;2.22;;;11.50;99.90;;;;;;4846110;29;20097;-91
2023/10/25 02:14:01;;;;;;;3.88;2.15;;;11.50;99.90;;;;;;4839722;29;20052;-90
2023/10/25 02:16:27;;;;;;;4.30;2.38;;;11.40;99.90;;;;;;4820896;29;20034;-94
2023/10/25 02:19:00;;;;;;;4.75;2.17;;;11.40;99.90;;;;;;4833409;29;20022;-95
2023/10/25 02:21:39;;;;;;;;;;;;;;;;;;;;;
2023/10/25 02:24:11;;;;;;;5.40;2.30;;;11.40;99.90;;;;;;4848651;29;20109;-94
2023/10/25 02:26:47;;;;;;;;;;;;;;;;;;;;;
2023/10/25 02:29:31;;;;;;;3.58;1.98;;;11.30;99.90;;;;;;4820934;29;20044;-93
2023/10/25 02:32:12;;;;;;;;;;;;;;;;;;;;;
2023/10/25 02:34:49;;;;;;;4.88;2.10;;;11.20;99.90;;;;;;4818467;29;20027;-95
2023/10/25 02:37:17;;;;;;;4.55;2.45;;;11.20;99.90;;;;;;4830365;29;20038;-92
2023/10/25 02:39:46;;;;;;;4.03;2.03;;;11.20;99.90;;;;;;4814147;29;20030;-95
2023/10/25 02:42:14;;;;;;;7.80;2.33;;;11.20;99.90;;;;;;4829440;29;20064;-94
2023/10/25 02:44:46;;;;;;;3.50;1.92;;;11.20;99.90;;;;;;4816051;29;20045;-92
2023/10/25 02:47:12;;;;;;;3.78;2.22;;;11.20;99.90;;;;;;4827470;29;20155;-92
2023/10/25 02:50:03;;;;;;;5.80;2.50;;;11.20;99.90;;;;;;4826469;29;20070;-92
2023/10/25 02:52:46;;;;;;;;;;;;;;;;;;;;;
2023/10/25 02:55:12;;;;;;;4.57;2.38;;;11.10;99.90;;;;;;4812967;29;20113;-93
2023/10/25 02:57:43;;;;;;;3.75;2.35;;;11.10;99.90;;;;;;4828548;29;20129;-95
2023/10/25 03:00:15;;;;;;;8.10;2.70;;;11.00;99.90;;;;;;4829330;29;20030;-95
2023/10/25 03:02:42;;;;;;;4.63;2.72;;;11.00;99.90;;;;;;4838514;29;20486;-94
2023/10/25 03:05:08;;;;;;;3.80;2.75;;;11.00;99.90;;;;;;4811743;29;20043;-94
2023/10/25 03:07:34;;;;;;;5.80;2.17;;;11.00;99.90;;;;;;4820641;29;20046;-94
2023/10/25 03:10:05;;;;;;;5.18;2.42;;;11.00;99.90;;;;;;4811728;29;20043;-95
2023/10/25 03:12:33;;;;;;;5.60;2.42;;;10.90;99.90;;;;;;4823088;29;20041;-93
2023/10/25 03:15:02;;;;;;;3.50;2.38;;;10.90;99.90;;;;;;4815774;29;20472;-93
2023/10/25 03:17:31;;;;;;;6.95;2.75;;;10.80;99.90;;;;;;4808969;29;20035;-93
2023/10/25 03:19:57;;;;;;;5.95;2.75;;;10.80;99.90;;;;;;4818252;29;20066;-92
2023/10/25 03:22:33;;;;;;;;;;;;;;;;;;;;;
2023/10/25 03:24:59;;;;;;;6.32;2.88;;;10.70;99.90;;;;;;4809794;29;20041;-94
2023/10/25 03:27:49;;;;;;;4.97;2.72;;;10.60;99.90;;;;;;4815846;29;20120;-92
2023/10/25 03:30:19;;;;;;;3.90;2.42;;;10.60;99.90;;;;;;4810610;29;20118;-91
2023/10/25 03:32:45;;;;;;;3.95;2.70;;;10.60;99.90;;;;;;4846535;29;20037;-93
2023/10/25 03:35:12;;;;;;;3.17;2.10;;;10.50;99.90;;;;;;4836371;29;20036;-92
2023/10/25 03:37:41;;;;;;;4.32;2.33;;;10.50;99.90;;;;;;4827714;29;20038;-93
2023/10/25 03:40:15;;;;;;;3.30;2.50;;;10.40;99.90;;;;;;4827836;29;20041;-93
2023/10/25 03:42:44;;;;;;;6.82;3.03;;;10.40;99.90;;;;;;4829145;29;20066;-93
2023/10/25 03:45:13;;;;;;;5.82;2.70;;;10.40;99.90;;;;;;4832505;29;20034;-92
2023/10/25 03:47:46;;;;;;;9.35;2.83;;;10.40;99.90;;;;;;4832763;29;20559;-93
2023/10/25 03:50:12;;;;;;;7.00;2.90;;;10.40;99.90;;;;;;4828598;29;20061;-91
2023/10/25 03:52:38;;;;;;;6.07;2.63;;;10.40;99.90;;;;;;4837356;29;20077;-94
2023/10/25 03:55:08;;;;;;;6.93;3.00;;;10.40;99.90;;;;;;4822463;29;20099;-93
2023/10/25 03:57:36;;;;;;;6.35;3.10;;;10.40;99.90;;;;;;4829362;29;20059;-94
2023/10/25 04:00:12;;;;;;;5.13;2.78;;;10.40;99.90;;;;;;4817471;29;20069;-92
2023/10/25 04:02:38;;;;;;;5.05;2.78;;;10.40;99.90;;;;;;4801390;29;20130;-93
2023/10/25 04:05:07;;;;;;;7.32;3.05;;;10.30;99.90;;;;;;4837489;29;20045;-93
2023/10/25 04:07:35;;;;;;;7.53;3.13;;;10.30;99.90;;;;;;4832545;29;20030;-94
2023/10/25 04:10:12;;;;;;;5.35;2.90;;;10.30;99.90;;;;;;4813657;29;20073;-94
2023/10/25 04:12:51;;;;;;;5.78;3.38;;;10.30;99.90;;;;;;4811109;29;20043;-92
2023/10/25 04:15:17;;;;;;;6.50;2.97;;;10.30;99.90;;;;;;4824699;29;20438;-95
2023/10/25 04:17:48;;;;;;;4.82;2.95;;;10.20;99.90;;;;;;4846514;29;20116;-95
2023/10/25 04:20:19;;;;;;;6.75;3.15;;;10.20;99.90;;;;;;4811668;29;20030;-94
2023/10/25 04:22:50;;;;;;;4.90;2.95;;;10.20;99.90;;;;;;4797432;29;20039;-93
2023/10/25 04:25:23;;;;;;;6.05;2.80;;;10.10;99.90;;;;;;4829877;29;20486;-94
2023/10/25 04:28:00;;;;;;;4.47;2.80;;;10.10;99.90;;;;;;4812820;29;20037;-92
2023/10/25 04:31:17;;;;;;;;;;;;;;;;;;;;;
2023/10/25 04:33:44;;;;;;;5.45;3.05;;;10.10;99.90;;;;;;4753757;30;20054;-93
2023/10/25 04:36:35;;;;;;;5.63;3.15;;;10.10;99.90;;;;;;4754059;30;20029;-94
2023/10/25 04:39:11;;;;;;;4.18;2.83;;;10.10;99.90;;;;;;4819763;29;20034;-93
2023/10/25 04:41:57;;;;;;;5.38;2.80;;;10.10;99.90;;;;;;4829675;29;20041;-93
2023/10/25 04:44:45;;;;;;;4.35;2.83;;;10.20;99.90;;;;;;4830149;29;20031;-93
2023/10/25 04:47:31;;;;;;;4.75;2.65;;;10.20;99.90;;;;;;4820674;29;20058;-91
2023/10/25 04:50:26;;;;;;;3.97;2.70;;;10.20;99.90;;;;;;4804161;29;20168;-91
2023/10/25 04:53:01;;;;;;;7.20;2.88;;;10.20;99.90;;;;;;4816277;29;20047;-91
2023/10/25 04:56:01;;;;;;;5.97;3.08;;;10.20;99.90;;;;;;4808234;29;20038;-90
2023/10/25 05:01:52;;;;;;;3.80;2.30;;;10.20;99.90;;;;;;4805963;29;20042;-91
2023/10/25 05:04:20;;;;;;;6.47;3.15;;;10.20;99.90;;;;;;4806459;29;20043;-90
2023/10/25 05:06:57;;;;;;;5.35;2.58;;;10.30;99.90;;;;;;4826189;29;20038;-92
2023/10/25 05:09:27;;;;;;;7.40;2.75;;;10.30;99.90;;;;;;4814489;29;20038;-89
2023/10/25 05:12:33;;;;;;;;;;;;;;;;;;;;;
2023/10/25 05:15:25;;;;;;;4.38;2.75;;;10.30;99.90;;;;;;4820874;29;20483;-89
2023/10/25 05:18:11;;;;;;;;;;;;;;;;;;;;;
2023/10/25 05:20:41;;;;;;;4.45;2.50;;;10.40;99.90;;;;;;4822423;29;20041;-92
2023/10/25 05:23:24;;;;;;;;;;;;;;;;;;;;;
2023/10/25 05:26:02;;;;;;;3.25;2.40;;;10.50;99.90;;;;;;4846741;29;20058;-94
2023/10/25 05:28:40;;;;;;;5.68;2.88;;;10.50;99.90;;;;;;4840173;29;20026;-92
2023/10/25 05:31:34;;;;;;;4.55;2.67;;;10.50;99.90;;;;;;4821661;29;20038;-94
2023/10/25 05:40:06;;;;;;;5.93;3.00;;;10.50;99.90;;;;;;4806438;29;20118;-93
2023/10/25 05:43:05;;;;;;;5.25;2.17;;;10.50;99.90;;;;;;4822458;29;20133;-93
2023/10/25 05:45:58;;;;;;;;;;;;;;;;;;;;;
2023/10/25 05:48:44;;;;;;;3.30;2.00;;;10.60;99.90;;;;;;4806721;29;20055;-94
2023/10/25 05:51:20;;;;;;;4.97;2.10;;;10.60;99.90;;;;;;4809769;29;20049;-94
2023/10/25 05:54:34;;;;;;;;;;;;;;;;;;;;;
2023/10/25 05:57:19;;;;;;;4.75;2.50;;;10.60;99.90;;;;;;4779039;29;20072;-93
2023/10/25 06:00:18;;;;;;;4.60;2.70;;;10.60;99.90;;;;;;4792315;29;20050;-95
2023/10/25 06:02:54;;;;;;;3.90;2.38;;;10.60;99.90;;;;;;4807029;29;20074;-95
2023/10/25 06:05:34;;;;;;;;;;;;;;;;;;;;;
2023/10/25 06:08:05;;;;;;;3.20;2.50;;;10.60;99.90;;;;;;4826117;29;20354;-92
2023/10/25 06:10:43;;;;;;;4.32;2.90;;;10.60;99.90;;;;;;4824892;29;20026;-92
2023/10/25 06:16:21;;;;;;;5.25;3.00;;;10.60;99.90;;;;;;4837378;29;20034;-95
2023/10/25 06:19:01;;;;;;;6.10;2.60;;;10.60;99.90;;;;;;4843863;29;20385;-92
2023/10/25 06:24:13;;;;;;;7.57;3.08;;;10.60;99.90;;;;;;4821603;29;20470;-93
2023/10/25 06:26:52;;;;;;;4.00;2.63;;;10.60;99.90;;;;;;4829391;29;20035;-93
2023/10/25 06:29:37;;;;;;;;;;;;;;;;;;;;;
2023/10/25 06:32:27;;;;;;;8.55;3.20;;;10.70;99.90;;;;;;4825312;29;20038;-92
2023/10/25 06:35:05;;;;;;;;;;;;;;;;;;;;;
2023/10/25 06:37:34;;;;;;;6.07;3.08;;;10.60;99.90;;;;;;4812735;29;20038;-92
2023/10/25 06:40:06;;;;;;;4.80;2.60;;;10.70;99.90;;;;;;4822651;29;20027;-93
2023/10/25 06:42:58;;;;;;;4.68;2.80;;;10.70;99.90;;;;;;4829101;29;20058;-92
2023/10/25 06:45:34;;;;;;;3.15;2.20;;;10.70;99.90;;;;;;4832357;29;20042;-94
2023/10/25 06:48:10;;;;;;;11.85;3.22;;;10.70;99.90;;;;;;4813723;29;20087;-94
2023/10/25 06:50:47;;;;;;;3.75;2.65;;;10.80;99.90;;;;;;4812935;29;20058;-94
2023/10/25 06:53:24;;;;;;;8.60;3.22;;;10.80;99.90;;;;;;4815287;29;20129;-91
2023/10/25 06:55:53;;;;;;;5.22;3.00;;;10.80;99.90;;;;;;4832559;29;20030;-95
2023/10/25 06:58:22;;;;;;;4.40;2.88;;;10.80;99.90;;;;;;4862858;29;20116;-91
2023/10/25 07:00:54;;;;;;;3.50;2.40;;;10.80;99.90;;;;;;4843783;29;20026;-91
2023/10/25 07:03:27;;;;;;;5.20;2.60;;;10.80;99.90;;;;;;4820603;29;20548;-92
2023/10/25 07:06:05;;;;;;;4.28;2.60;;;10.80;99.90;;;;;;4830351;29;20502;-92
2023/10/25 07:08:43;;;;;;;;;;;;;;;;;;;;;
2023/10/25 07:11:25;;;;;;;5.65;2.97;;;11.00;99.90;;;;;;4828296;29;20038;-93
2023/10/25 07:14:12;;;;;;;;;;;11.00;99.90;;;;;;4816726;29;20066;-94
2023/10/25 07:16:50;;;;;;;;;;;;;;;;;;;;;
2023/10/25 07:22:13;;;;;;;5.10;2.67;;;11.00;99.90;;;;;;4828139;29;20130;-92
2023/10/25 07:24:41;;;;;;;6.20;3.10;;;11.10;99.90;;;;;;4839712;29;20061;-92
2023/10/25 07:27:12;;;;;;;3.78;2.45;;;11.10;99.90;;;;;;4829637;29;20057;-93
2023/10/25 07:32:57;;;;;;;4.40;2.33;;;11.20;99.90;;;;;;4829051;29;20035;-94
2023/10/25 07:35:46;;;;;;;5.57;2.70;;;11.20;99.90;;;;;;4799074;29;20038;-93
2023/10/25 07:38:39;;;;;;;4.82;2.65;;;11.20;99.90;;;;;;4826940;29;20087;-94
2023/10/25 07:41:22;;;;;;;5.93;3.03;;;11.30;99.90;;;;;;4807561;29;20066;-94
2023/10/25 07:47:09;;;;;;;4.32;2.55;;;11.40;99.90;;;;;;4810260;29;20042;-92
2023/10/25 07:49:47;;;;;;;;;;;;;;;;;;;;;
2023/10/25 07:52:18;;;;;;;4.88;3.00;;;11.40;99.90;;;;;;4826144;29;20044;-92
2023/10/25 07:54:49;;;;;;;4.30;3.10;;;11.50;99.90;;;;;;4826297;29;20030;-94
2023/10/25 07:57:19;;;;;;;;;;;11.50;99.90;;;;;;4822770;29;20037;-94
2023/10/25 07:59:48;;;;;;;5.80;2.87;;;11.60;99.90;;;;;;4823662;29;19916;-93
2023/10/25 08:02:43;;;;;;;;;;;;;;;;;;;;;
2023/10/25 08:05:37;;;;;;;4.32;2.95;;;11.60;99.90;;;;;;4818094;29;20050;-93
2023/10/25 08:08:06;;;;;;;4.35;2.92;;;11.70;99.90;;;;;;4813686;29;20041;-93
2023/10/25 08:10:34;;;;;;;4.97;3.40;;;11.70;99.90;;;;;;4811420;29;20031;-92
2023/10/25 08:13:31;;;;;;;6.57;3.25;;;11.70;99.90;;;;;;4826503;29;20045;-92
2023/10/25 08:16:04;;;;;;;7.53;4.65;;;11.80;99.90;;;;;;4817276;29;20065;-91
2023/10/25 08:18:34;;;;;;;5.53;3.83;;;11.70;99.90;;;;;;4827257;29;20031;-91
2023/10/25 08:20:59;;;;;;;5.35;3.65;;;11.80;99.90;;;;;;4827360;29;20030;-91
2023/10/25 08:23:38;;;;;;;;;;;;;;;;;;;;;
2023/10/25 08:26:08;;;;;;;6.20;3.83;;;11.80;99.90;;;;;;4826771;29;20045;-91
2023/10/25 08:28:34;;;;;;;6.40;3.80;;;11.80;99.90;;;;;;4828058;29;20057;-92
2023/10/25 08:31:20;;;;;;;7.25;4.03;;;11.80;99.90;;;;;;4837245;29;20482;-92
2023/10/25 08:33:46;;;;;;;7.40;3.95;;;11.90;99.90;;;;;;4837451;29;20035;-93
2023/10/25 08:36:24;;;;;;;;;;;;;;;;;;;;;
2023/10/25 08:38:52;;;;;;;8.15;3.50;;;11.80;99.90;;;;;;4822278;29;20102;-93
2023/10/25 08:41:25;;;;;;;5.93;3.63;;;11.90;99.90;;;;;;4813055;29;20038;-93
2023/10/25 08:43:52;;;;;;;5.32;3.47;;;11.90;99.90;;;;;;4828038;29;20045;-95
2023/10/25 08:46:24;;;;;;;9.32;3.30;;;11.90;99.90;;;;;;4822396;29;20056;-94
2023/10/25 08:48:52;;;;;;;4.63;3.03;;;12.00;99.90;;;;;;4812604;29;20061;-94
2023/10/25 08:51:24;;;;;;;5.07;2.88;;;12.00;99.90;;;;;;4817341;29;20034;-93
2023/10/25 08:53:52;;;;;;;4.13;2.58;;;12.00;99.90;;;;;;4807389;29;20042;-93
2023/10/25 08:56:22;;;;;;;4.55;2.95;;;12.00;99.90;;;;;;4797493;29;20103;-93
2023/10/25 08:58:51;;;;;;;4.50;2.97;;;12.00;99.90;;;;;;4831629;29;20069;-92
2023/10/25 09:01:19;;;;;;;6.80;3.10;;;12.00;99.90;;;;;;4832824;29;20098;-92
2023/10/25 09:03:48;;;;;;;4.78;3.00;;;12.00;99.90;;;;;;4825901;29;20035;-92
2023/10/25 09:06:23;;;;;;;4.75;3.00;;;12.00;99.90;;;;;;4823744;29;20058;-94
2023/10/25 09:09:12;;;;;;;;;;;;;;;;;;;;;
2023/10/25 09:11:42;;;;;;;3.67;2.85;;;12.00;99.90;;;;;;4838483;29;20109;-93
2023/10/25 09:14:10;;;;;;;3.50;2.55;;;12.10;99.90;;;;;;4837536;29;20026;-94
2023/10/25 09:16:47;;;;;;;5.20;3.20;;;12.10;99.90;;;;;;4825859;29;20057;-94
2023/10/25 09:19:19;;;;;;;5.60;2.95;;;12.10;99.90;;;;;;4819707;29;20094;-93
2023/10/25 09:21:52;;;;;;;6.30;3.13;;;12.10;99.90;;;;;;4824216;29;20040;-94
2023/10/25 09:24:23;;;;;;;5.03;2.97;;;12.10;99.90;;;;;;4828941;29;20034;-92
2023/10/25 09:26:57;;;;;;;;;;;12.20;99.90;;;;;;4826321;29;20048;-94
2023/10/25 09:29:26;;;;;;;4.65;2.78;;;12.20;99.90;;;;;;4832924;29;19920;-94
2023/10/25 09:32:01;;;;;;;3.80;2.72;;;12.20;99.90;;;;;;4838378;29;20388;-93
2023/10/25 09:34:27;;;;;;;4.88;2.92;;;12.20;99.90;;;;;;4828201;29;20121;-94
2023/10/25 09:37:07;;;;;;;4.55;2.72;;;12.20;99.90;;;;;;4825477;29;20047;-93
2023/10/25 09:39:37;;;;;;;4.68;2.92;;;12.20;99.90;;;;;;4824930;29;20034;-92
2023/10/25 09:42:11;;;;;;;5.43;2.90;;;12.20;99.90;;;;;;4828535;29;20030;-93
2023/10/25 09:45:01;;;;;;;5.63;3.00;;;12.20;99.90;;;;;;4810411;29;20050;-94
2023/10/25 09:47:37;;;;;;;4.23;3.17;;;12.20;99.90;;;;;;4806004;29;20027;-86
2023/10/25 09:50:10;;;;;;;6.68;3.10;;;12.20;99.90;;;;;;4838597;29;20398;-94
2023/10/25 09:52:47;;;;;;;6.50;3.15;;;12.20;99.90;;;;;;4826256;29;20091;-93
2023/10/25 09:55:24;;;;;;;4.10;2.63;;;12.20;99.90;;;;;;4816327;29;20109;-91
2023/10/25 09:57:57;;;;;;;5.85;3.17;;;12.30;99.90;;;;;;4828878;29;20034;-94
2023/10/25 10:00:28;;;;;;;4.95;3.28;;;12.30;99.90;;;;;;4829349;29;20087;-93
2023/10/25 10:03:04;;;;;;;6.50;3.00;;;12.30;99.90;;;;;;4821369;29;20431;-93
2023/10/25 10:05:45;;;;;;;4.03;2.55;;;12.30;99.90;;;;;;4844918;29;20041;-94
2023/10/25 10:08:21;;;;;;;4.15;2.97;;;12.40;99.90;;;;;;4827367;29;20163;-94
2023/10/25 10:11:03;;;;;;;5.75;3.17;;;12.30;99.90;;;;;;4831877;29;20059;-93
2023/10/25 10:13:28;;;;;;;6.22;3.30;;;12.30;99.90;;;;;;4826445;29;20042;-94
2023/10/25 10:16:15;;;;;;;4.10;3.03;;;12.40;99.90;;;;;;4823491;29;20027;-93
2023/10/25 10:19:07;;;;;;;7.03;3.30;;;12.40;99.90;;;;;;4813927;29;20019;-93
2023/10/25 10:22:35;;;;;;;;;;;;;;;;;;;;;
2023/10/25 10:25:00;;;;;;;6.75;3.70;;;12.40;99.90;;;;;;4890883;24;19984;-93
2023/10/25 10:27:51;;;;;;;;;;;;;;;;;;;;;
2023/10/25 10:30:32;;;;;;;5.35;2.70;;;12.40;99.90;;;;;;4826806;29;20059;-93
2023/10/25 10:33:01;;;;;;;6.25;3.78;;;12.40;99.90;;;;;;4825515;29;20039;-92
2023/10/25 10:35:47;;;;;;;4.68;2.70;;;12.40;99.90;;;;;;4824247;29;20098;-93
2023/10/25 10:39:07;;;;;;;;;;;;;;;;;;;;;
2023/10/25 10:48:54;;;;;;;;;;;;;;;;;;;;;
2023/10/25 11:04:15;;;;;;;;;;;;;;;;;;;;;
2023/10/25 11:17:34;;;;;;;5.60;2.75;;;12.60;99.90;;;;;;4866313;29;20074;-94
2023/10/25 11:20:30;;;;;;;5.38;2.75;;;12.60;99.90;;;;;;4793123;29;20035;-94
2023/10/25 11:24:18;;;;;;;4.97;2.55;;;12.60;99.90;;;;;;5039747;24;20036;-94
2023/10/25 11:32:16;;;;;;;;;;;;;;;;;;;;;
2023/10/25 11:59:17;;;;;;;5.10;2.58;;;12.50;99.90;;;;;;4875009;24;20054;-94
2023/10/25 12:05:44;;;;;;;4.80;3.00;;;12.50;99.90;;;;;;4984306;24;20057;-91
2023/10/25 12:08:44;;;;;;;6.18;2.70;;;12.40;99.90;;;;;;4910161;24;20053;-94
2023/10/25 12:11:31;;;;;;;3.90;2.40;;;12.40;99.90;;;;;;4935936;24;20140;-93
2023/10/25 12:14:41;;;;;;;5.22;2.45;;;12.40;99.90;;;;;;4895780;24;20057;-93
2023/10/25 12:17:52;;;;;;;4.10;2.58;;;12.40;99.90;;;;;;4851883;29;20045;-93
2023/10/25 12:23:16;;;;;;;6.78;3.00;;;12.40;99.90;;;;;;4852582;29;20054;-93
2023/10/25 12:26:20;;;;;;;3.35;2.40;;;12.50;99.90;;;;;;4843811;29;20033;-93
2023/10/25 12:29:03;;;;;;;5.20;2.35;;;12.50;99.90;;;;;;4858671;29;20041;-94
2023/10/25 12:31:40;;;;;;;4.43;2.58;;;12.50;99.90;;;;;;4870220;29;20025;-94
2023/10/25 12:34:41;;;;;;;;;;;;;;;;;;;;;
2023/10/25 12:37:46;;;;;;;;;;;;;;;;;;;;;
2023/10/25 12:40:51;;;;;;;;;;;;;;;;;;;;;
2023/10/25 12:43:56;;;;;;;3.08;1.90;;;12.60;99.90;;;;;;4806709;29;20140;-94
2023/10/25 12:47:06;;;;;;;3.17;2.00;;;12.60;99.90;;;;;;4807339;29;20055;-95
2023/10/25 12:49:51;;;;;;;2.90;1.95;;;12.60;99.90;;;;;;4874310;29;20025;-94
2023/10/25 12:55:34;;;;;;;3.78;2.00;;;12.70;99.90;;;;;;4794147;29;20535;-93
2023/10/25 12:58:45;;;;;;;;;;;;;;;;;;;;;
2023/10/25 13:01:18;;;;;;;3.45;2.10;;;12.70;99.90;;;;;;4862282;29;20043;-93
2023/10/25 13:03:51;;;;;;;5.43;2.05;;;12.70;99.90;;;;;;4832286;29;20046;-94
2023/10/25 13:06:31;;;;;;;;;;;;;;;;;;;;;
2023/10/25 13:09:16;;;;;;;;;;;;;;;;;;;;;
2023/10/25 13:12:02;;;;;;;5.35;1.98;;;12.60;99.90;;;;;;4830461;29;20493;-92
2023/10/25 13:14:28;;;;;;;3.40;1.60;;;12.60;99.90;;;;;;4829053;29;20461;-92
2023/10/25 13:16:54;;;;;;;3.22;1.52;;;12.60;99.90;;;;;;4844649;29;20036;-93
2023/10/25 13:19:44;;;;;;;2.58;1.88;;;12.60;99.90;;;;;;4847157;29;20041;-93
2023/10/25 13:22:23;;;;;;;;;;;;;;;;;;;;;
2023/10/25 13:25:21;;;;;;;3.38;2.05;;;12.50;99.90;;;;;;4887758;29;20051;-91
2023/10/25 13:27:44;;;;;;;2.80;1.48;;;12.50;99.90;;;;;;4879714;29;20037;-94
2023/10/25 13:30:53;;;;;;;2.70;1.67;;;12.50;99.90;;;;;;4850386;29;20026;-94
2023/10/25 13:33:28;;;;;;;3.00;2.00;;;12.50;99.90;;;;;;4845818;29;20038;-92
2023/10/25 13:36:03;;;;;;;1.65;1.50;;;12.50;99.90;;;;;;4864239;29;20021;-93
2023/10/25 13:38:54;;;;;;;4.90;2.55;;;12.60;99.90;;;;;;4866439;29;20029;-94
2023/10/25 13:41:23;;;;;;;4.60;1.77;;;12.60;99.90;;;;;;4866944;29;20053;-94
2023/10/25 13:44:25;;;;;;;;;;;;;;;;;;;;;
2023/10/25 13:47:12;;;;;;;2.88;1.42;;;12.60;99.90;;;;;;4845051;29;20094;-95
2023/10/25 13:49:44;;;;;;;2.97;1.83;;;12.60;99.90;;;;;;4823532;29;20069;-94
2023/10/25 13:52:20;;;;;;;2.97;1.80;;;12.60;99.90;;;;;;4855138;29;20036;-93
2023/10/25 13:55:20;;;;;;;;;;;;;;;;;;;;;
2023/10/25 13:58:43;;;;;;;2.90;1.58;;;12.60;99.90;;;;;;4887485;29;20088;-93
2023/10/25 14:01:35;;;;;;;3.22;1.55;;;12.60;99.90;;;;;;4835257;29;20040;-93
2023/10/25 14:07:38;;;;;;;2.92;1.65;;;12.60;99.90;;;;;;4864349;29;20041;-94
2023/10/25 14:10:23;;;;;;;2.05;1.65;;;12.60;99.90;;;;;;4870357;29;20481;-96
2023/10/25 14:13:21;;;;;;;1.98;1.60;;;12.50;99.90;;;;;;4868631;29;20037;-95
2023/10/25 14:16:10;;;;;;;2.22;1.58;;;12.50;99.90;;;;;;4840325;29;20072;-95
2023/10/25 14:18:54;;;;;;;1.40;1.30;;;12.50;99.90;;;;;;4840914;29;20119;-93
2023/10/25 14:21:23;;;;;;;3.13;1.60;;;12.50;99.90;;;;;;4842284;29;20057;-92
2023/10/25 14:24:08;;;;;;;2.17;1.15;;;12.40;99.90;;;;;;4859639;29;20041;-93
2023/10/25 14:26:54;;;;;;;1.20;1.10;;;12.50;99.90;;;;;;4864916;29;20025;-94
2023/10/25 14:30:01;;;;;;;2.70;1.45;;;12.60;99.90;;;;;;4835008;29;20092;-93
2023/10/25 14:32:40;;;;;;;2.03;1.55;;;12.60;99.90;;;;;;4880084;29;20378;-91
2023/10/25 14:35:14;;;;;;;2.20;1.77;;;12.60;99.90;;;;;;4869502;29;20021;-94
2023/10/25 14:38:02;;;;;;;;;;;;;;;;;;;;;
2023/10/25 14:40:49;;;;;;;1.50;1.40;;;12.60;99.90;;;;;;4879067;29;20105;-93
2023/10/25 14:43:18;;;;;;;1.95;1.50;;;12.60;99.90;;;;;;4814281;29;20043;-92
2023/10/25 14:46:09;;;;;;;3.28;2.00;;;12.60;99.90;;;;;;4799270;29;20042;-93
2023/10/25 14:49:13;;;;;;;4.22;2.10;;;12.50;99.90;;;;;;4811318;29;20046;-94
2023/10/25 14:51:53;;;;;;;2.92;1.90;;;12.50;99.90;;;;;;4834225;29;20067;-95
2023/10/25 14:54:38;;;;;;;2.67;1.73;;;12.50;99.90;;;;;;4832968;29;20018;-93
2023/10/25 14:57:10;;;;;;;3.03;2.00;;;12.50;99.90;;;;;;4849607;29;20010;-93
2023/10/25 14:59:48;;;;;;;;;;;;;;;;;;;;;
2023/10/25 15:02:30;;;;;;;3.38;1.95;;;12.60;99.90;;;;;;4868762;29;20058;-94
2023/10/25 15:05:04;;;;;;;2.65;1.60;;;12.60;99.90;;;;;;4823106;29;20042;-93
2023/10/25 15:10:49;;;;;;;2.42;1.77;;;12.60;99.90;;;;;;4840399;29;20029;-92
2023/10/25 15:13:29;;;;;;;2.22;1.90;;;12.60;99.90;;;;;;4849845;29;20060;-94
2023/10/25 15:16:22;;;;;;;;;;;;;;;;;;;;;
2023/10/25 15:22:03;;;;;;;2.58;1.73;;;12.60;99.90;;;;;;4842283;29;20041;-93
2023/10/25 15:24:47;;;;;;;;;;;;;;;;;;;;;
2023/10/25 15:27:25;;;;;;;2.00;1.80;;;12.60;99.90;;;;;;4842251;29;20030;-92
2023/10/25 15:32:42;;;;;;;3.65;2.22;;;12.60;99.90;;;;;;4808294;29;20045;-93
2023/10/25 15:35:23;;;;;;;;;;;;;;;;;;;;;
2023/10/25 15:38:28;;;;;;;3.08;2.15;;;12.60;99.90;;;;;;4823096;29;20113;-93
2023/10/25 15:41:39;;;;;;;2.42;1.83;;;12.70;99.90;;;;;;4829727;29;20053;-92
2023/10/25 15:44:36;;;;;;;1.88;1.48;;;12.70;99.90;;;;;;4846771;29;20037;-92
2023/10/25 15:47:52;;;;;;;2.55;2.10;;;12.70;99.90;;;;;;4845382;29;20044;-94
2023/10/25 15:51:00;;;;;;;2.25;2.05;;;12.70;99.90;;;;;;4839389;29;20090;-93
2023/10/25 15:53:55;;;;;;;2.42;1.70;;;12.70;99.90;;;;;;4853770;29;20056;-94
2023/10/25 15:57:22;;;;;;;1.90;1.70;;;12.60;99.90;;;;;;4858935;29;20037;-94
2023/10/25 16:00:01;;;;;;;2.22;2.00;;;12.70;99.90;;;;;;4821589;29;20124;-93
2023/10/25 16:02:34;;;;;;;2.88;2.22;;;12.70;99.90;;;;;;4837883;29;20037;-92
2023/10/25 16:05:06;;;;;;;3.30;2.17;;;12.70;99.90;;;;;;4847982;29;20121;-94
2023/10/25 16:07:36;;;;;;;2.55;1.98;;;12.60;99.90;;;;;;4832911;29;20057;-93
2023/10/25 16:10:15;;;;;;;;;;;;;;;;;;;;;
2023/10/25 16:13:22;;;;;;;3.58;2.20;;;12.70;99.90;;;;;;4868994;29;20105;-94
2023/10/25 16:16:15;;;;;;;3.42;2.10;;;12.60;99.90;;;;;;4835448;29;20098;-93
2023/10/25 16:19:11;;;;;;;;;;;;;;;;;;;;;
2023/10/25 16:22:16;;;;;;;;;;;;;;;;;;;;;
2023/10/25 16:24:57;;;;;;;;;;;;;;;;;;;;;
2023/10/25 16:27:23;;;;;;;3.60;2.40;;;12.60;99.90;;;;;;4864562;29;20099;-93
2023/10/25 16:29:49;;;;;;;2.40;2.20;;;12.70;99.90;;;;;;4851580;29;20077;-94
2023/10/25 16:32:20;;;;;;;3.35;2.70;;;12.70;99.90;;;;;;4863979;29;20025;-90
2023/10/25 16:34:49;;;;;;;2.92;2.50;;;12.60;99.90;;;;;;4843761;29;20074;-91
2023/10/25 16:37:25;;;;;;;;;;;;;;;;;;;;;